| time (UTC) | temp C | wind direction | speed KPH | gust KPH | rain 1hr cm | rain 24hr cm | rain mn cm | humidity % | barometer mb |
| 20260901143617 | 14 | 0.0 | 1.6 | 0.00 | 0.00 | 0.00 | 63 | 1013.6 | |
| 20260901142657 | 14 | 158 | 3.2 | 4.8 | 0.00 | 0.00 | 0.00 | 64 | 1013.6 |
| 20260901141637 | 14 | 0.0 | 1.6 | 0.00 | 0.00 | 0.00 | 64 | 1013.7 | |
| 20260901140617 | 14 | 135 | 3.2 | 4.8 | 0.00 | 0.00 | 0.00 | 64 | 1013.7 |
| 20260901135617 | 14 | 135 | 1.6 | 3.2 | 0.00 | 0.00 | 0.00 | 64 | 1013.6 |
| 20260901134617 | 14 | 135 | 1.6 | 3.2 | 0.00 | 0.00 | 0.00 | 64 | 1013.6 |
| 20260901133637 | 14 | 0.0 | 1.6 | 0.00 | 0.00 | 0.00 | 64 | 1013.5 | |
| 20260901132617 | 14 | 135 | 1.6 | 3.2 | 0.00 | 0.00 | 0.00 | 64 | 1013.5 |
| 20260901132517 | 14 | 135 | 1.6 | 3.2 | 0.00 | 0.00 | 0.00 | 64 | 1013.6 |
| 20260901131517 | 14 | 0.0 | 3.2 | 0.00 | 0.00 | 0.00 | 65 | 1013.5 | |
| 20260901130517 | 14 | 0.0 | 1.6 | 0.00 | 0.00 | 0.00 | 65 | 1013.6 | |
| 20260901125516 | 14 | 0.0 | 1.6 | 0.00 | 0.00 | 0.00 | 65 | 1013.4 | |
| 20260901124516 | 13 | 0.0 | 0.0 | 0.00 | 0.00 | 0.00 | 65 | 1013.5 | |
| 20260901123517 | 13 | 158 | 1.6 | 3.2 | 0.00 | 0.00 | 0.00 | 65 | 1013.5 |
| 20260901122517 | 13 | 180 | 3.2 | 6.4 | 0.00 | 0.00 | 0.00 | 65 | 1013.5 |
| 20260901121516 | 13 | 135 | 4.8 | 9.7 | 0.00 | 0.00 | 0.00 | 65 | 1013.6 |
| 20260901120536 | 13 | 158 | 8.0 | 14.5 | 0.00 | 0.00 | 0.00 | 65 | 1013.6 |
| 20260901115516 | 13 | 135 | 6.4 | 11.3 | 0.00 | 0.00 | 0.00 | 65 | 1013.5 |
| 20260901114517 | 13 | 135 | 4.8 | 6.4 | 0.00 | 0.00 | 0.00 | 65 | 1013.4 |
| 20260901113516 | 13 | 135 | 4.8 | 8.0 | 0.00 | 0.00 | 0.00 | 65 | 1013.3 |
| 20260901112537 | 13 | 135 | 3.2 | 8.0 | 0.00 | 0.00 | 0.00 | 65 | 1013.2 |
| 20260901111516 | 14 | 158 | 4.8 | 9.7 | 0.00 | 0.00 | 0.00 | 65 | 1013.2 |
| 20260901110517 | 14 | 135 | 4.8 | 6.4 | 0.00 | 0.00 | 0.00 | 64 | 1013.1 |
| 20260901105516 | 14 | 135 | 3.2 | 8.0 | 0.00 | 0.00 | 0.00 | 64 | 1013.1 |
| 20260901104517 | 14 | 158 | 3.2 | 4.8 | 0.00 | 0.00 | 0.00 | 64 | 1013.1 |
| 20260901103516 | 14 | 158 | 4.8 | 9.7 | 0.00 | 0.00 | 0.00 | 64 | 1013.1 |
| 20260901102516 | 14 | 158 | 4.8 | 8.0 | 0.00 | 0.00 | 0.00 | 64 | 1013.1 |
| 20260901101516 | 15 | 135 | 4.8 | 8.0 | 0.00 | 0.00 | 0.00 | 63 | 1013.0 |
| 20260901100536 | 15 | 135 | 6.4 | 8.0 | 0.00 | 0.00 | 0.00 | 63 | 1013.0 |
| 20260901095517 | 15 | 180 | 3.2 | 6.4 | 0.00 | 0.00 | 0.00 | 63 | 1012.9 |
| 20260901094516 | 15 | 135 | 6.4 | 11.3 | 0.00 | 0.00 | 0.00 | 62 | 1012.8 |
| 20260901093516 | 15 | 158 | 4.8 | 8.0 | 0.00 | 0.00 | 0.00 | 62 | 1012.8 |
| 20260901092516 | 15 | 135 | 4.8 | 8.0 | 0.00 | 0.00 | 0.00 | 62 | 1012.7 |
| 20260901091537 | 15 | 135 | 4.8 | 6.4 | 0.00 | 0.00 | 0.00 | 62 | 1012.6 |
| 20260901090516 | 15 | 135 | 4.8 | 6.4 | 0.00 | 0.00 | 0.00 | 61 | 1012.5 |
| 20260901085536 | 15 | 135 | 1.6 | 3.2 | 0.00 | 0.00 | 0.00 | 61 | 1012.5 |
| 20260901084516 | 15 | 135 | 1.6 | 1.6 | 0.00 | 0.00 | 0.00 | 60 | 1012.4 |
| 20260901083516 | 16 | 135 | 4.8 | 6.4 | 0.00 | 0.00 | 0.00 | 59 | 1012.5 |
| 20260901082516 | 16 | 158 | 4.8 | 6.4 | 0.00 | 0.00 | 0.00 | 58 | 1012.6 |
| 20260901081516 | 16 | 135 | 4.8 | 9.7 | 0.00 | 0.00 | 0.00 | 57 | 1012.6 |
| 20260901080516 | 17 | 135 | 3.2 | 4.8 | 0.00 | 0.00 | 0.00 | 56 | 1012.6 |
| 20260901075516 | 17 | 113 | 1.6 | 3.2 | 0.00 | 0.00 | 0.00 | 55 | 1012.3 |
| 20260901074516 | 17 | 135 | 4.8 | 4.8 | 0.00 | 0.00 | 0.00 | 55 | 1012.2 |
| 20260901073516 | 17 | 180 | 4.8 | 6.4 | 0.00 | 0.00 | 0.00 | 54 | 1012.2 |
| 20260901072516 | 17 | 158 | 4.8 | 8.0 | 0.00 | 0.00 | 0.00 | 54 | 1012.1 |
| 20260901065537 | 19 | 180 | 1.6 | 3.2 | 0.00 | 0.00 | 0.00 | 51 | 1011.6 |
| 20260901064517 | 19 | 270 | 1.6 | 1.6 | 0.00 | 0.00 | 0.00 | 52 | 1011.5 |
| 20260901063537 | 19 | 270 | 6.4 | 9.7 | 0.00 | 0.00 | 0.00 | 51 | 1011.4 |
| 20260901062517 | 20 | 270 | 4.8 | 6.4 | 0.00 | 0.00 | 0.00 | 50 | 1011.4 |
| 20260901061517 | 20 | 293 | 1.6 | 3.2 | 0.00 | 0.00 | 0.00 | 48 | 1011.2 |
| 20260901060517 | 20 | 270 | 1.6 | 1.6 | 0.00 | 0.00 | 0.00 | 47 | 1011.0 |
| 20260901055549 | 21 | 0.0 | 1.6 | 0.00 | 0.00 | 0.00 | 46 | 1010.9 | |
| 20260901055417 | 21 | 0.0 | 1.6 | 0.00 | 0.00 | 0.00 | 46 | 1010.8 | |
| 20260901054437 | 21 | 248 | 3.2 | 4.8 | 0.00 | 0.00 | 0.00 | 45 | 1010.7 |
| 20260901053436 | 21 | 293 | 3.2 | 3.2 | 0.00 | 0.00 | 0.00 | 44 | 1010.7 |
| 20260901052417 | 21 | 270 | 6.4 | 9.7 | 0.00 | 0.00 | 0.00 | 44 | 1010.6 |
| 20260901051437 | 21 | 270 | 3.2 | 4.8 | 0.00 | 0.00 | 0.00 | 43 | 1010.6 |
| 20260901050417 | 22 | 293 | 3.2 | 4.8 | 0.00 | 0.00 | 0.00 | 43 | 1010.4 |
| 20260901045416 | 22 | 315 | 4.8 | 6.4 | 0.00 | 0.00 | 0.00 | 42 | 1010.4 |
| 20260901044417 | 22 | 315 | 3.2 | 4.8 | 0.00 | 0.00 | 0.00 | 40 | 1010.2 |
| 20260901043416 | 21 | 248 | 3.2 | 3.2 | 0.00 | 0.00 | 0.00 | 38 | 1010.1 |
| 20260901042418 | 22 | 0.0 | 0.0 | 0.00 | 0.00 | 0.00 | 37 | 1010.1 | |
| 20260901041436 | 22 | 0.0 | 0.0 | 0.00 | 0.00 | 0.00 | 36 | 1009.9 | |
| 20260901040416 | 22 | 0.0 | 0.0 | 0.00 | 0.00 | 0.00 | 35 | 1009.9 | |
| 20260901035416 | 23 | 0.0 | 0.0 | 0.00 | 0.00 | 0.00 | 34 | 1009.7 | |
| 20260901034416 | 23 | 0.0 | 0.0 | 0.00 | 0.00 | 0.00 | 32 | 1009.7 | |
| 20260901033416 | 24 | 0.0 | 1.6 | 0.00 | 0.00 | 0.00 | 30 | 1009.5 | |
| 20260901032416 | 25 | 203 | 1.6 | 3.2 | 0.00 | 0.00 | 0.00 | 28 | 1009.3 |
| 20260901031416 | 25 | 203 | 3.2 | 4.8 | 0.00 | 0.00 | 0.00 | 27 | 1009.3 |
| 20260901030417 | 25 | 158 | 3.2 | 4.8 | 0.00 | 0.00 | 0.00 | 29 | 1009.3 |
| 20260901025416 | 26 | 158 | 1.6 | 4.8 | 0.00 | 0.00 | 0.00 | 30 | 1009.3 |
| 20260901024416 | 26 | 180 | 1.6 | 1.6 | 0.00 | 0.00 | 0.00 | 30 | 1009.3 |
| 20260901023416 | 26 | 248 | 1.6 | 3.2 | 0.00 | 0.00 | 0.00 | 29 | 1009.2 |
| 20260901022416 | 27 | 0.0 | 1.6 | 0.00 | 0.00 | 0.00 | 28 | 1009.2 | |
| 20260901021416 | 27 | 203 | 3.2 | 4.8 | 0.00 | 0.00 | 0.00 | 27 | 1009.2 |
| 20260901020416 | 28 | 203 | 1.6 | 3.2 | 0.00 | 0.00 | 0.00 | 25 | 1009.1 |
| 20260901015416 | 28 | 248 | 3.2 | 4.8 | 0.00 | 0.00 | 0.00 | 23 | 1009.2 |
| 20260901014416 | 28 | 293 | 4.8 | 6.4 | 0.00 | 0.00 | 0.00 | 22 | 1009.1 |
| 20260901013416 | 29 | 293 | 3.2 | 4.8 | 0.00 | 0.00 | 0.00 | 22 | 1009.1 |
| 20260901012416 | 29 | 270 | 4.8 | 9.7 | 0.00 | 0.00 | 0.00 | 22 | 1009.2 |
| 20260901011416 | 30 | 293 | 3.2 | 4.8 | 0.00 | 0.00 | 0.00 | 22 | 1009.2 |
| 20260901010416 | 30 | 293 | 1.6 | 3.2 | 0.00 | 0.00 | 0.00 | 22 | 1009.2 |
| 20260901005416 | 29 | 270 | 3.2 | 6.4 | 0.00 | 0.00 | 0.00 | 22 | 1009.4 |
| 20260901004436 | 29 | 293 | 1.6 | 3.2 | 0.00 | 0.00 | 0.00 | 22 | 1009.5 |
| 20260901003416 | 30 | 0.0 | 1.6 | 0.00 | 0.00 | 0.00 | 21 | 1009.4 | |
| 20260901002416 | 30 | 315 | 3.2 | 4.8 | 0.00 | 0.00 | 0.00 | 22 | 1009.5 |
| 20260901001416 | 29 | 270 | 3.2 | 4.8 | 0.00 | 0.00 | 0.00 | 23 | 1009.4 |
| 20260901000416 | 30 | 270 | 3.2 | 4.8 | 0.00 | 0.00 | 0.00 | 21 | 1009.5 |
| 20260831235416 | 30 | 248 | 3.2 | 4.8 | 0.00 | 0.00 | 0.00 | 22 | 1009.5 |
| 20260831234416 | 30 | 293 | 6.4 | 9.7 | 0.00 | 0.00 | 0.00 | 23 | 1009.6 |
| 20260831233416 | 29 | 315 | 4.8 | 8.0 | 0.00 | 0.00 | 0.00 | 24 | 1009.6 |
| 20260831232416 | 29 | 270 | 6.4 | 12.9 | 0.00 | 0.00 | 0.00 | 23 | 1009.7 |
| 20260831231416 | 29 | 248 | 4.8 | 8.0 | 0.00 | 0.00 | 0.00 | 25 | 1009.8 |
| 20260831230416 | 29 | 203 | 4.8 | 9.7 | 0.00 | 0.00 | 0.00 | 25 | 1009.8 |
| 20260831225456 | 29 | 248 | 9.7 | 12.9 | 0.00 | 0.00 | 0.00 | 25 | 1009.8 |
| 20260831224416 | 29 | 225 | 3.2 | 6.4 | 0.00 | 0.00 | 0.00 | 25 | 1009.9 |
| 20260831223415 | 28 | 270 | 3.2 | 6.4 | 0.00 | 0.00 | 0.00 | 26 | 1010.1 |
| 20260831222416 | 28 | 248 | 3.2 | 6.4 | 0.00 | 0.00 | 0.00 | 28 | 1010.0 |
| 20260831221416 | 28 | 270 | 6.4 | 14.5 | 0.00 | 0.00 | 0.00 | 27 | 1010.3 |
| 20260831220416 | 28 | 225 | 6.4 | 14.5 | 0.00 | 0.00 | 0.00 | 27 | 1010.3 |
| 20260831215415 | 28 | 248 | 6.4 | 12.9 | 0.00 | 0.00 | 0.00 | 27 | 1010.4 |
| 20260831214416 | 28 | 225 | 4.8 | 9.7 | 0.00 | 0.00 | 0.00 | 28 | 1010.4 |
| 20260831213416 | 28 | 270 | 8.0 | 12.9 | 0.00 | 0.00 | 0.00 | 29 | 1010.5 |
| 20260831212415 | 28 | 248 | 9.7 | 12.9 | 0.00 | 0.00 | 0.00 | 28 | 1010.6 |
| 20260831211416 | 27 | 270 | 9.7 | 14.5 | 0.00 | 0.00 | 0.00 | 29 | 1010.6 |
| 20260831210419 | 27 | 270 | 8.0 | 16.1 | 0.00 | 0.00 | 0.00 | 29 | 1010.7 |
| 20260831205436 | 27 | 293 | 8.0 | 11.3 | 0.00 | 0.00 | 0.00 | 30 | 1010.8 |
| 20260831204416 | 27 | 293 | 6.4 | 11.3 | 0.00 | 0.00 | 0.00 | 31 | 1010.8 |
| 20260831203416 | 27 | 293 | 8.0 | 11.3 | 0.00 | 0.00 | 0.00 | 31 | 1010.8 |
| 20260831202416 | 27 | 270 | 8.0 | 11.3 | 0.00 | 0.00 | 0.00 | 32 | 1010.9 |
| 20260831201415 | 27 | 270 | 6.4 | 11.3 | 0.00 | 0.00 | 0.00 | 32 | 1011.0 |
| 20260831200415 | 27 | 315 | 4.8 | 9.7 | 0.00 | 0.00 | 0.00 | 32 | 1011.2 |
| 20260831195415 | 26 | 270 | 8.0 | 14.5 | 0.00 | 0.00 | 0.00 | 33 | 1011.4 |
| 20260831194435 | 26 | 293 | 6.4 | 12.9 | 0.00 | 0.00 | 0.00 | 33 | 1011.5 |
| 20260831193415 | 26 | 315 | 6.4 | 9.7 | 0.00 | 0.00 | 0.00 | 33 | 1011.6 |
| 20260831192418 | 25 | 270 | 4.8 | 9.7 | 0.00 | 0.00 | 0.00 | 35 | 1011.7 |
| 20260831191435 | 25 | 270 | 9.7 | 14.5 | 0.00 | 0.00 | 0.00 | 35 | 1012.0 |
| 20260831190415 | 25 | 315 | 4.8 | 8.0 | 0.00 | 0.00 | 0.00 | 36 | 1012.0 |
| 20260831185415 | 24 | 293 | 9.7 | 14.5 | 0.00 | 0.00 | 0.00 | 36 | 1012.2 |
| 20260831184416 | 24 | 293 | 8.0 | 12.9 | 0.00 | 0.00 | 0.00 | 38 | 1012.2 |
| 20260831183415 | 23 | 315 | 1.6 | 4.8 | 0.00 | 0.00 | 0.00 | 38 | 1012.2 |
| 20260831182415 | 23 | 293 | 4.8 | 8.0 | 0.00 | 0.00 | 0.00 | 40 | 1012.4 |
| 20260831181415 | 22 | 338 | 4.8 | 8.0 | 0.00 | 0.00 | 0.00 | 43 | 1012.6 |
| 20260831180415 | 22 | 338 | 6.4 | 8.0 | 0.00 | 0.00 | 0.00 | 45 | 1012.7 |
| 20260831175415 | 21 | 270 | 6.4 | 11.3 | 0.00 | 0.00 | 0.00 | 45 | 1012.6 |
| 20260831174435 | 20 | 315 | 6.4 | 11.3 | 0.00 | 0.00 | 0.00 | 47 | 1012.6 |
| 20260831173417 | 20 | 338 | 4.8 | 6.4 | 0.00 | 0.00 | 0.00 | 51 | 1012.7 |
| 20260831172418 | 19 | 315 | 6.4 | 8.0 | 0.00 | 0.00 | 0.00 | 52 | 1012.8 |
| 20260831171417 | 18 | 315 | 6.4 | 8.0 | 0.00 | 0.00 | 0.00 | 55 | 1012.9 |
| 20260831170437 | 17 | 293 | 6.4 | 12.9 | 0.00 | 0.00 | 0.00 | 56 | 1012.8 |
| 20260831165417 | 16 | 293 | 4.8 | 4.8 | 0.00 | 0.00 | 0.00 | 58 | 1012.7 |
| 20260831164417 | 15 | 270 | 11.3 | 12.9 | 0.00 | 0.00 | 0.00 | 59 | 1012.7 |
| 20260831163417 | 15 | 270 | 8.0 | 11.3 | 0.00 | 0.00 | 0.00 | 61 | 1012.9 |
| 20260831162417 | 14 | 293 | 6.4 | 6.4 | 0.00 | 0.00 | 0.00 | 61 | 1013.0 |
| 20260831161417 | 13 | 270 | 8.0 | 11.3 | 0.00 | 0.00 | 0.00 | 63 | 1013.0 |
| 20260831160417 | 13 | 293 | 6.4 | 9.7 | 0.00 | 0.00 | 0.00 | 64 | 1013.2 |
| 20260831155417 | 13 | 315 | 4.8 | 8.0 | 0.00 | 0.00 | 0.00 | 65 | 1013.2 |
| 20260831154417 | 12 | 293 | 6.4 | 8.0 | 0.00 | 0.00 | 0.00 | 65 | 1013.3 |
| 20260831153417 | 12 | 293 | 4.8 | 9.7 | 0.00 | 0.00 | 0.00 | 66 | 1013.4 |
| 20260831152417 | 12 | 270 | 8.0 | 11.3 | 0.00 | 0.00 | 0.00 | 67 | 1013.3 |
| 20260831151437 | 12 | 293 | 4.8 | 6.4 | 0.00 | 0.00 | 0.00 | 67 | 1013.4 |
| 20260831150417 | 12 | 293 | 4.8 | 4.8 | 0.00 | 0.00 | 0.00 | 70 | 1013.3 |
| 20260831145417 | 12 | 293 | 4.8 | 4.8 | 0.00 | 0.00 | 0.00 | 72 | 1013.5 |
| 20260831144437 | 11 | 293 | 3.2 | 3.2 | 0.00 | 0.00 | 0.00 | 73 | 1013.5 |